Bybee, Tennessee
Current Conditions -  °F | °C
As of 9:15 AM on Saturday 22 Nov 2014 (Local Time) from KMOR Reporting Station
Clear Clear  
Wind Chill: 37°   Ceiling: Unl
Heat Index: 37°   Visibility: 10mi
Dew Point: 19°   Wind: 3mph
Humidity: 48%   Direction: 70°ENE
Pressure: 30.43"   Gusts: NA
Location:  36.05°N, 83.18°W
Report Text: KMOR 221415Z AUTO 07003KT 10SM CLR 03/M07 A3043 RMK
Loading
Personal Weather Stations






























Interactive Weather Map New forecast layout! Learn more

10-Day Weather Forecast

Advertisements
Track Severe Weather on mobile